sensor_id;sensor_type;location;lat;lon;timestamp;P1;durP1;ratioP1;P2;durP2;ratioP2
55913;SDS011;58179;48.776;9.124;2022-09-09T00:00:53;4.35;;;1.50;;
55913;SDS011;58179;48.776;9.124;2022-09-09T00:03:35;11.40;;;1.80;;
55913;SDS011;58179;48.776;9.124;2022-09-09T00:06:11;3.58;;;1.83;;
55913;SDS011;58179;48.776;9.124;2022-09-09T00:08:50;6.60;;;1.70;;
55913;SDS011;58179;48.776;9.124;2022-09-09T00:11:27;6.82;;;1.80;;
55913;SDS011;58179;48.776;9.124;2022-09-09T00:14:08;4.00;;;1.65;;
55913;SDS011;58179;48.776;9.124;2022-09-09T00:16:44;9.50;;;1.92;;
55913;SDS011;58179;48.776;9.124;2022-09-09T00:19:20;2.85;;;1.42;;
55913;SDS011;58179;48.776;9.124;2022-09-09T00:21:51;2.65;;;1.50;;
55913;SDS011;58179;48.776;9.124;2022-09-09T00:24:30;6.90;;;1.70;;
55913;SDS011;58179;48.776;9.124;2022-09-09T00:27:04;6.57;;;2.10;;
55913;SDS011;58179;48.776;9.124;2022-09-09T00:29:38;5.32;;;1.70;;
55913;SDS011;58179;48.776;9.124;2022-09-09T00:32:11;5.68;;;1.77;;
55913;SDS011;58179;48.776;9.124;2022-09-09T00:34:43;7.00;;;1.75;;
55913;SDS011;58179;48.776;9.124;2022-09-09T00:37:14;5.85;;;2.08;;
55913;SDS011;58179;48.776;9.124;2022-09-09T00:39:44;7.15;;;1.75;;
55913;SDS011;58179;48.776;9.124;2022-09-09T00:42:14;4.28;;;1.58;;
55913;SDS011;58179;48.776;9.124;2022-09-09T00:44:48;4.82;;;1.90;;
55913;SDS011;58179;48.776;9.124;2022-09-09T00:47:27;6.40;;;1.75;;
55913;SDS011;58179;48.776;9.124;2022-09-09T00:50:11;6.03;;;2.05;;
55913;SDS011;58179;48.776;9.124;2022-09-09T00:53:14;6.05;;;1.90;;
55913;SDS011;58179;48.776;9.124;2022-09-09T00:55:56;7.32;;;1.90;;
55913;SDS011;58179;48.776;9.124;2022-09-09T00:58:30;6.80;;;2.10;;
55913;SDS011;58179;48.776;9.124;2022-09-09T01:00:57;10.52;;;1.90;;
55913;SDS011;58179;48.776;9.124;2022-09-09T01:03:34;3.60;;;1.50;;
55913;SDS011;58179;48.776;9.124;2022-09-09T01:06:11;6.50;;;1.70;;
55913;SDS011;58179;48.776;9.124;2022-09-09T01:08:43;4.45;;;1.55;;
55913;SDS011;58179;48.776;9.124;2022-09-09T01:11:32;4.13;;;1.70;;
55913;SDS011;58179;48.776;9.124;2022-09-09T01:14:10;3.50;;;1.30;;
55913;SDS011;58179;48.776;9.124;2022-09-09T01:16:45;4.75;;;1.42;;
55913;SDS011;58179;48.776;9.124;2022-09-09T01:19:15;9.07;;;1.63;;
55913;SDS011;58179;48.776;9.124;2022-09-09T01:21:54;4.77;;;1.60;;
55913;SDS011;58179;48.776;9.124;2022-09-09T01:24:30;4.20;;;1.48;;
55913;SDS011;58179;48.776;9.124;2022-09-09T01:27:06;4.00;;;1.60;;
55913;SDS011;58179;48.776;9.124;2022-09-09T01:29:33;5.45;;;1.50;;
55913;SDS011;58179;48.776;9.124;2022-09-09T01:31:59;2.63;;;1.40;;
55913;SDS011;58179;48.776;9.124;2022-09-09T01:34:28;7.07;;;1.83;;
55913;SDS011;58179;48.776;9.124;2022-09-09T01:37:01;5.22;;;1.60;;
55913;SDS011;58179;48.776;9.124;2022-09-09T01:39:31;3.88;;;1.40;;
55913;SDS011;58179;48.776;9.124;2022-09-09T01:41:58;7.13;;;1.75;;
55913;SDS011;58179;48.776;9.124;2022-09-09T01:44:25;6.25;;;1.58;;
55913;SDS011;58179;48.776;9.124;2022-09-09T01:46:54;4.90;;;1.40;;
55913;SDS011;58179;48.776;9.124;2022-09-09T01:49:20;5.15;;;1.60;;
55913;SDS011;58179;48.776;9.124;2022-09-09T01:51:48;6.05;;;1.70;;
55913;SDS011;58179;48.776;9.124;2022-09-09T01:54:18;6.57;;;1.50;;
55913;SDS011;58179;48.776;9.124;2022-09-09T01:56:47;7.50;;;1.70;;
55913;SDS011;58179;48.776;9.124;2022-09-09T01:59:31;5.28;;;1.67;;
55913;SDS011;58179;48.776;9.124;2022-09-09T02:02:14;8.13;;;1.70;;
55913;SDS011;58179;48.776;9.124;2022-09-09T02:04:45;7.05;;;1.85;;
55913;SDS011;58179;48.776;9.124;2022-09-09T02:07:17;5.85;;;1.52;;
55913;SDS011;58179;48.776;9.124;2022-09-09T02:09:57;7.38;;;2.00;;
55913;SDS011;58179;48.776;9.124;2022-09-09T02:12:30;3.08;;;1.50;;
55913;SDS011;58179;48.776;9.124;2022-09-09T02:14:59;4.90;;;1.90;;
55913;SDS011;58179;48.776;9.124;2022-09-09T02:17:31;8.23;;;2.03;;
55913;SDS011;58179;48.776;9.124;2022-09-09T02:20:03;4.20;;;1.52;;
55913;SDS011;58179;48.776;9.124;2022-09-09T02:22:33;3.70;;;1.45;;
55913;SDS011;58179;48.776;9.124;2022-09-09T02:25:02;5.43;;;1.47;;
55913;SDS011;58179;48.776;9.124;2022-09-09T02:27:32;5.30;;;1.70;;
55913;SDS011;58179;48.776;9.124;2022-09-09T02:29:59;5.00;;;1.73;;
55913;SDS011;58179;48.776;9.124;2022-09-09T02:32:27;8.63;;;2.00;;
55913;SDS011;58179;48.776;9.124;2022-09-09T02:34:56;5.03;;;1.63;;
55913;SDS011;58179;48.776;9.124;2022-09-09T02:37:27;6.20;;;1.73;;
55913;SDS011;58179;48.776;9.124;2022-09-09T02:40:00;3.00;;;1.42;;
55913;SDS011;58179;48.776;9.124;2022-09-09T02:42:26;6.35;;;2.10;;
55913;SDS011;58179;48.776;9.124;2022-09-09T02:44:52;8.43;;;1.90;;
55913;SDS011;58179;48.776;9.124;2022-09-09T02:47:32;7.87;;;1.90;;
55913;SDS011;58179;48.776;9.124;2022-09-09T02:50:06;10.20;;;3.55;;
55913;SDS011;58179;48.776;9.124;2022-09-09T02:52:42;3.10;;;1.70;;
55913;SDS011;58179;48.776;9.124;2022-09-09T02:55:21;4.90;;;1.75;;
55913;SDS011;58179;48.776;9.124;2022-09-09T02:57:54;4.18;;;1.70;;
55913;SDS011;58179;48.776;9.124;2022-09-09T03:00:22;4.50;;;1.50;;
55913;SDS011;58179;48.776;9.124;2022-09-09T03:02:51;5.85;;;1.52;;
55913;SDS011;58179;48.776;9.124;2022-09-09T03:05:18;3.90;;;1.92;;
55913;SDS011;58179;48.776;9.124;2022-09-09T03:07:44;4.77;;;1.80;;
55913;SDS011;58179;48.776;9.124;2022-09-09T03:10:10;4.82;;;1.90;;
55913;SDS011;58179;48.776;9.124;2022-09-09T03:12:36;5.03;;;1.67;;
55913;SDS011;58179;48.776;9.124;2022-09-09T03:15:02;3.63;;;1.45;;
55913;SDS011;58179;48.776;9.124;2022-09-09T03:17:28;5.53;;;1.75;;
55913;SDS011;58179;48.776;9.124;2022-09-09T03:19:55;7.72;;;2.03;;
55913;SDS011;58179;48.776;9.124;2022-09-09T03:22:23;2.67;;;1.27;;
55913;SDS011;58179;48.776;9.124;2022-09-09T03:24:50;5.90;;;1.75;;
55913;SDS011;58179;48.776;9.124;2022-09-09T03:27:16;3.20;;;1.30;;
55913;SDS011;58179;48.776;9.124;2022-09-09T03:29:42;3.65;;;1.50;;
55913;SDS011;58179;48.776;9.124;2022-09-09T03:32:08;3.67;;;1.73;;
55913;SDS011;58179;48.776;9.124;2022-09-09T03:34:35;4.90;;;1.55;;
55913;SDS011;58179;48.776;9.124;2022-09-09T03:37:05;4.03;;;1.58;;
55913;SDS011;58179;48.776;9.124;2022-09-09T03:39:31;7.00;;;1.70;;
55913;SDS011;58179;48.776;9.124;2022-09-09T03:41:57;4.65;;;1.30;;
55913;SDS011;58179;48.776;9.124;2022-09-09T03:44:23;10.75;;;1.85;;
55913;SDS011;58179;48.776;9.124;2022-09-09T03:46:49;4.40;;;1.50;;
55913;SDS011;58179;48.776;9.124;2022-09-09T03:49:15;4.43;;;1.55;;
55913;SDS011;58179;48.776;9.124;2022-09-09T03:51:41;4.38;;;1.60;;
55913;SDS011;58179;48.776;9.124;2022-09-09T03:54:09;3.90;;;1.70;;
55913;SDS011;58179;48.776;9.124;2022-09-09T03:56:35;3.58;;;1.30;;
55913;SDS011;58179;48.776;9.124;2022-09-09T03:59:01;3.73;;;1.40;;
55913;SDS011;58179;48.776;9.124;2022-09-09T04:01:28;3.15;;;1.67;;
55913;SDS011;58179;48.776;9.124;2022-09-09T04:03:54;4.17;;;1.40;;
55913;SDS011;58179;48.776;9.124;2022-09-09T04:06:23;2.30;;;1.48;;
55913;SDS011;58179;48.776;9.124;2022-09-09T04:08:49;5.68;;;1.50;;
55913;SDS011;58179;48.776;9.124;2022-09-09T04:11:18;4.90;;;1.48;;
55913;SDS011;58179;48.776;9.124;2022-09-09T04:13:44;4.90;;;1.70;;
55913;SDS011;58179;48.776;9.124;2022-09-09T04:16:11;6.07;;;1.73;;
55913;SDS011;58179;48.776;9.124;2022-09-09T04:18:38;2.88;;;1.30;;
55913;SDS011;58179;48.776;9.124;2022-09-09T04:21:04;3.77;;;1.20;;
55913;SDS011;58179;48.776;9.124;2022-09-09T04:23:32;2.40;;;1.35;;
55913;SDS011;58179;48.776;9.124;2022-09-09T04:25:59;3.72;;;1.30;;
55913;SDS011;58179;48.776;9.124;2022-09-09T04:28:28;5.63;;;1.40;;
55913;SDS011;58179;48.776;9.124;2022-09-09T04:30:56;3.72;;;1.60;;
55913;SDS011;58179;48.776;9.124;2022-09-09T04:33:28;2.65;;;1.33;;
55913;SDS011;58179;48.776;9.124;2022-09-09T04:35:56;4.07;;;1.50;;
55913;SDS011;58179;48.776;9.124;2022-09-09T04:38:22;7.55;;;1.30;;
55913;SDS011;58179;48.776;9.124;2022-09-09T04:40:48;4.47;;;1.63;;
55913;SDS011;58179;48.776;9.124;2022-09-09T04:43:16;3.90;;;1.50;;
55913;SDS011;58179;48.776;9.124;2022-09-09T04:45:46;2.92;;;1.30;;
55913;SDS011;58179;48.776;9.124;2022-09-09T04:48:13;2.60;;;1.35;;
55913;SDS011;58179;48.776;9.124;2022-09-09T04:50:40;4.05;;;1.33;;
55913;SDS011;58179;48.776;9.124;2022-09-09T04:53:06;3.47;;;1.52;;
55913;SDS011;58179;48.776;9.124;2022-09-09T04:55:32;3.63;;;1.45;;
55913;SDS011;58179;48.776;9.124;2022-09-09T04:58:03;4.82;;;1.60;;
55913;SDS011;58179;48.776;9.124;2022-09-09T05:00:30;2.97;;;1.50;;
55913;SDS011;58179;48.776;9.124;2022-09-09T05:02:57;2.40;;;1.40;;
55913;SDS011;58179;48.776;9.124;2022-09-09T05:05:24;3.65;;;1.60;;
55913;SDS011;58179;48.776;9.124;2022-09-09T05:07:50;3.13;;;1.40;;
55913;SDS011;58179;48.776;9.124;2022-09-09T05:10:16;4.20;;;1.30;;
55913;SDS011;58179;48.776;9.124;2022-09-09T05:12:43;3.58;;;1.40;;
55913;SDS011;58179;48.776;9.124;2022-09-09T05:15:17;3.90;;;1.38;;
55913;SDS011;58179;48.776;9.124;2022-09-09T05:17:43;3.85;;;1.55;;
55913;SDS011;58179;48.776;9.124;2022-09-09T05:20:11;4.63;;;1.60;;
55913;SDS011;58179;48.776;9.124;2022-09-09T05:22:37;5.70;;;1.80;;
55913;SDS011;58179;48.776;9.124;2022-09-09T05:25:03;3.07;;;1.47;;
55913;SDS011;58179;48.776;9.124;2022-09-09T05:27:29;4.10;;;1.67;;
55913;SDS011;58179;48.776;9.124;2022-09-09T05:29:56;6.32;;;1.60;;
55913;SDS011;58179;48.776;9.124;2022-09-09T05:32:23;5.50;;;1.48;;
55913;SDS011;58179;48.776;9.124;2022-09-09T05:34:49;7.55;;;1.60;;
55913;SDS011;58179;48.776;9.124;2022-09-09T05:37:17;4.50;;;1.67;;
55913;SDS011;58179;48.776;9.124;2022-09-09T05:39:43;10.48;;;1.92;;
55913;SDS011;58179;48.776;9.124;2022-09-09T05:42:09;6.57;;;1.50;;
55913;SDS011;58179;48.776;9.124;2022-09-09T05:44:35;3.53;;;1.60;;
55913;SDS011;58179;48.776;9.124;2022-09-09T05:47:02;4.60;;;1.30;;
55913;SDS011;58179;48.776;9.124;2022-09-09T05:49:28;5.75;;;1.63;;
55913;SDS011;58179;48.776;9.124;2022-09-09T05:51:54;4.63;;;1.50;;
55913;SDS011;58179;48.776;9.124;2022-09-09T05:54:21;4.85;;;2.00;;
55913;SDS011;58179;48.776;9.124;2022-09-09T05:56:47;5.32;;;1.50;;
55913;SDS011;58179;48.776;9.124;2022-09-09T05:59:15;3.03;;;1.30;;
55913;SDS011;58179;48.776;9.124;2022-09-09T06:01:41;6.00;;;1.55;;
55913;SDS011;58179;48.776;9.124;2022-09-09T06:04:07;6.38;;;1.50;;
55913;SDS011;58179;48.776;9.124;2022-09-09T06:06:34;3.95;;;1.42;;
55913;SDS011;58179;48.776;9.124;2022-09-09T06:09:04;4.40;;;1.45;;
55913;SDS011;58179;48.776;9.124;2022-09-09T06:11:36;4.00;;;1.50;;
55913;SDS011;58179;48.776;9.124;2022-09-09T06:14:04;4.47;;;1.20;;
55913;SDS011;58179;48.776;9.124;2022-09-09T06:16:31;3.70;;;1.30;;
55913;SDS011;58179;48.776;9.124;2022-09-09T06:18:58;3.70;;;1.48;;
55913;SDS011;58179;48.776;9.124;2022-09-09T06:21:25;5.35;;;1.50;;
55913;SDS011;58179;48.776;9.124;2022-09-09T06:23:53;6.20;;;1.50;;
55913;SDS011;58179;48.776;9.124;2022-09-09T06:26:19;7.25;;;1.80;;
55913;SDS011;58179;48.776;9.124;2022-09-09T06:28:49;3.42;;;1.50;;
55913;SDS011;58179;48.776;9.124;2022-09-09T06:31:18;3.88;;;1.60;;
55913;SDS011;58179;48.776;9.124;2022-09-09T06:33:46;4.83;;;1.60;;
55913;SDS011;58179;48.776;9.124;2022-09-09T06:36:14;4.63;;;1.53;;
55913;SDS011;58179;48.776;9.124;2022-09-09T06:38:43;5.07;;;1.60;;
55913;SDS011;58179;48.776;9.124;2022-09-09T06:41:10;5.65;;;1.60;;
55913;SDS011;58179;48.776;9.124;2022-09-09T06:43:37;4.37;;;1.60;;
55913;SDS011;58179;48.776;9.124;2022-09-09T06:46:06;5.93;;;1.35;;
55913;SDS011;58179;48.776;9.124;2022-09-09T06:48:35;7.03;;;1.70;;
55913;SDS011;58179;48.776;9.124;2022-09-09T06:51:03;3.45;;;1.30;;
55913;SDS011;58179;48.776;9.124;2022-09-09T06:53:31;4.00;;;1.40;;
55913;SDS011;58179;48.776;9.124;2022-09-09T06:55:58;4.20;;;1.55;;
55913;SDS011;58179;48.776;9.124;2022-09-09T06:58:26;6.55;;;1.58;;
55913;SDS011;58179;48.776;9.124;2022-09-09T07:00:51;4.10;;;1.63;;
55913;SDS011;58179;48.776;9.124;2022-09-09T07:03:19;5.10;;;1.80;;
55913;SDS011;58179;48.776;9.124;2022-09-09T07:05:53;6.53;;;1.33;;
55913;SDS011;58179;48.776;9.124;2022-09-09T07:08:21;6.97;;;1.63;;
55913;SDS011;58179;48.776;9.124;2022-09-09T07:10:47;6.30;;;1.45;;
55913;SDS011;58179;48.776;9.124;2022-09-09T07:13:13;4.57;;;1.50;;
55913;SDS011;58179;48.776;9.124;2022-09-09T07:15:40;5.25;;;1.63;;
55913;SDS011;58179;48.776;9.124;2022-09-09T07:18:06;4.28;;;1.60;;
55913;SDS011;58179;48.776;9.124;2022-09-09T07:20:36;4.57;;;1.50;;
55913;SDS011;58179;48.776;9.124;2022-09-09T07:23:02;4.55;;;1.77;;
55913;SDS011;58179;48.776;9.124;2022-09-09T07:25:28;4.50;;;1.55;;
55913;SDS011;58179;48.776;9.124;2022-09-09T07:27:55;8.50;;;1.80;;
55913;SDS011;58179;48.776;9.124;2022-09-09T07:30:21;3.60;;;1.45;;
55913;SDS011;58179;48.776;9.124;2022-09-09T07:32:47;5.05;;;1.70;;
55913;SDS011;58179;48.776;9.124;2022-09-09T07:35:15;4.13;;;1.40;;
55913;SDS011;58179;48.776;9.124;2022-09-09T07:37:43;4.80;;;1.40;;
55913;SDS011;58179;48.776;9.124;2022-09-09T07:40:10;3.47;;;1.30;;
55913;SDS011;58179;48.776;9.124;2022-09-09T07:42:36;5.38;;;1.55;;
55913;SDS011;58179;48.776;9.124;2022-09-09T07:45:02;6.57;;;1.33;;
55913;SDS011;58179;48.776;9.124;2022-09-09T07:47:29;5.65;;;1.55;;
55913;SDS011;58179;48.776;9.124;2022-09-09T07:49:55;2.42;;;1.35;;
55913;SDS011;58179;48.776;9.124;2022-09-09T07:52:21;3.17;;;1.20;;
55913;SDS011;58179;48.776;9.124;2022-09-09T07:54:48;3.58;;;1.20;;
55913;SDS011;58179;48.776;9.124;2022-09-09T07:57:14;6.38;;;1.50;;
55913;SDS011;58179;48.776;9.124;2022-09-09T07:59:41;6.35;;;1.80;;
55913;SDS011;58179;48.776;9.124;2022-09-09T08:02:08;4.95;;;1.27;;
55913;SDS011;58179;48.776;9.124;2022-09-09T08:04:34;3.80;;;1.42;;
55913;SDS011;58179;48.776;9.124;2022-09-09T08:07:00;4.68;;;1.40;;
55913;SDS011;58179;48.776;9.124;2022-09-09T08:09:28;6.18;;;1.48;;
55913;SDS011;58179;48.776;9.124;2022-09-09T08:11:56;7.65;;;1.50;;
55913;SDS011;58179;48.776;9.124;2022-09-09T08:14:23;5.50;;;1.75;;
55913;SDS011;58179;48.776;9.124;2022-09-09T08:16:49;8.95;;;1.70;;
55913;SDS011;58179;48.776;9.124;2022-09-09T08:19:16;5.50;;;1.70;;
55913;SDS011;58179;48.776;9.124;2022-09-09T08:21:42;8.43;;;1.50;;
55913;SDS011;58179;48.776;9.124;2022-09-09T08:24:09;4.10;;;1.20;;
55913;SDS011;58179;48.776;9.124;2022-09-09T08:26:38;6.25;;;1.95;;
55913;SDS011;58179;48.776;9.124;2022-09-09T08:29:08;4.70;;;1.27;;
55913;SDS011;58179;48.776;9.124;2022-09-09T08:31:37;6.27;;;1.70;;
55913;SDS011;58179;48.776;9.124;2022-09-09T08:34:05;8.30;;;1.50;;
55913;SDS011;58179;48.776;9.124;2022-09-09T08:36:33;4.97;;;1.17;;
55913;SDS011;58179;48.776;9.124;2022-09-09T08:39:04;6.85;;;1.30;;
55913;SDS011;58179;48.776;9.124;2022-09-09T08:47:52;5.85;;;1.52;;
55913;SDS011;58179;48.776;9.124;2022-09-09T08:50:33;7.38;;;1.60;;
55913;SDS011;58179;48.776;9.124;2022-09-09T08:53:04;5.00;;;1.40;;
55913;SDS011;58179;48.776;9.124;2022-09-09T08:55:41;9.07;;;1.90;;
55913;SDS011;58179;48.776;9.124;2022-09-09T08:58:14;6.85;;;1.60;;
55913;SDS011;58179;48.776;9.124;2022-09-09T09:00:47;4.75;;;1.38;;
55913;SDS011;58179;48.776;9.124;2022-09-09T09:03:28;6.00;;;1.30;;
55913;SDS011;58179;48.776;9.124;2022-09-09T09:06:04;3.42;;;1.10;;
55913;SDS011;58179;48.776;9.124;2022-09-09T09:08:45;2.58;;;1.00;;
55913;SDS011;58179;48.776;9.124;2022-09-09T09:11:18;3.78;;;1.25;;
55913;SDS011;58179;48.776;9.124;2022-09-09T09:13:45;8.52;;;1.65;;
55913;SDS011;58179;48.776;9.124;2022-09-09T09:16:22;5.87;;;1.73;;
55913;SDS011;58179;48.776;9.124;2022-09-09T09:18:56;9.13;;;1.80;;
55913;SDS011;58179;48.776;9.124;2022-09-09T09:21:26;5.53;;;1.50;;
55913;SDS011;58179;48.776;9.124;2022-09-09T09:24:01;6.88;;;1.33;;
55913;SDS011;58179;48.776;9.124;2022-09-09T09:26:33;8.23;;;1.35;;
55913;SDS011;58179;48.776;9.124;2022-09-09T09:29:00;5.68;;;1.70;;
55913;SDS011;58179;48.776;9.124;2022-09-09T09:31:36;4.15;;;1.20;;
55913;SDS011;58179;48.776;9.124;2022-09-09T09:34:02;7.20;;;1.40;;
55913;SDS011;58179;48.776;9.124;2022-09-09T09:36:33;5.47;;;1.30;;
55913;SDS011;58179;48.776;9.124;2022-09-09T09:39:04;5.90;;;1.60;;
55913;SDS011;58179;48.776;9.124;2022-09-09T09:41:31;4.50;;;1.10;;
55913;SDS011;58179;48.776;9.124;2022-09-09T09:44:00;4.13;;;1.48;;
55913;SDS011;58179;48.776;9.124;2022-09-09T09:46:27;4.18;;;1.08;;
55913;SDS011;58179;48.776;9.124;2022-09-09T09:48:58;3.00;;;1.02;;
55913;SDS011;58179;48.776;9.124;2022-09-09T09:51:25;2.70;;;1.10;;
55913;SDS011;58179;48.776;9.124;2022-09-09T09:53:53;3.67;;;0.90;;
55913;SDS011;58179;48.776;9.124;2022-09-09T09:56:25;2.93;;;1.00;;
55913;SDS011;58179;48.776;9.124;2022-09-09T09:58:57;6.65;;;1.25;;
55913;SDS011;58179;48.776;9.124;2022-09-09T10:01:24;6.22;;;1.20;;
55913;SDS011;58179;48.776;9.124;2022-09-09T10:03:53;1.67;;;1.10;;
55913;SDS011;58179;48.776;9.124;2022-09-09T10:06:31;5.68;;;1.30;;
55913;SDS011;58179;48.776;9.124;2022-09-09T10:08:58;4.00;;;1.10;;
55913;SDS011;58179;48.776;9.124;2022-09-09T10:11:30;5.28;;;1.60;;
55913;SDS011;58179;48.776;9.124;2022-09-09T10:14:11;3.97;;;1.10;;
55913;SDS011;58179;48.776;9.124;2022-09-09T10:16:49;3.13;;;1.10;;
55913;SDS011;58179;48.776;9.124;2022-09-09T10:19:30;6.05;;;1.27;;
55913;SDS011;58179;48.776;9.124;2022-09-09T10:22:12;6.38;;;1.33;;
55913;SDS011;58179;48.776;9.124;2022-09-09T10:24:54;7.97;;;1.60;;
55913;SDS011;58179;48.776;9.124;2022-09-09T10:28:06;5.25;;;1.35;;
55913;SDS011;58179;48.776;9.124;2022-09-09T10:30:54;6.15;;;1.30;;
55913;SDS011;58179;48.776;9.124;2022-09-09T10:33:35;6.60;;;1.40;;
55913;SDS011;58179;48.776;9.124;2022-09-09T10:36:13;4.97;;;1.23;;
55913;SDS011;58179;48.776;9.124;2022-09-09T10:38:46;4.82;;;1.33;;
55913;SDS011;58179;48.776;9.124;2022-09-09T10:41:18;5.28;;;1.20;;
55913;SDS011;58179;48.776;9.124;2022-09-09T10:46:56;4.50;;;1.23;;
55913;SDS011;58179;48.776;9.124;2022-09-09T10:49:47;5.65;;;1.52;;
55913;SDS011;58179;48.776;9.124;2022-09-09T10:52:39;5.97;;;1.42;;
55913;SDS011;58179;48.776;9.124;2022-09-09T10:55:17;4.68;;;1.20;;
55913;SDS011;58179;48.776;9.124;2022-09-09T10:57:50;4.10;;;1.47;;
55913;SDS011;58179;48.776;9.124;2022-09-09T11:00:19;4.35;;;1.50;;
55913;SDS011;58179;48.776;9.124;2022-09-09T11:02:48;9.15;;;1.50;;
55913;SDS011;58179;48.776;9.124;2022-09-09T11:05:21;7.35;;;1.30;;
55913;SDS011;58179;48.776;9.124;2022-09-09T11:07:54;5.25;;;1.20;;
55913;SDS011;58179;48.776;9.124;2022-09-09T11:10:26;7.43;;;1.38;;
55913;SDS011;58179;48.776;9.124;2022-09-09T11:13:05;3.03;;;1.00;;
55913;SDS011;58179;48.776;9.124;2022-09-09T11:15:41;4.63;;;1.27;;
55913;SDS011;58179;48.776;9.124;2022-09-09T11:18:11;5.45;;;1.30;;
55913;SDS011;58179;48.776;9.124;2022-09-09T11:20:44;3.60;;;1.08;;
55913;SDS011;58179;48.776;9.124;2022-09-09T11:23:13;2.33;;;1.05;;
55913;SDS011;58179;48.776;9.124;2022-09-09T11:25:45;4.47;;;1.05;;
55913;SDS011;58179;48.776;9.124;2022-09-09T11:28:21;2.75;;;1.00;;
55913;SDS011;58179;48.776;9.124;2022-09-09T11:31:17;3.85;;;1.10;;
55913;SDS011;58179;48.776;9.124;2022-09-09T11:34:06;3.42;;;0.98;;
55913;SDS011;58179;48.776;9.124;2022-09-09T11:36:49;2.80;;;0.85;;
55913;SDS011;58179;48.776;9.124;2022-09-09T11:39:47;3.40;;;1.00;;
55913;SDS011;58179;48.776;9.124;2022-09-09T11:42:36;4.38;;;1.30;;
55913;SDS011;58179;48.776;9.124;2022-09-09T11:45:09;7.00;;;1.00;;
55913;SDS011;58179;48.776;9.124;2022-09-09T11:47:50;5.57;;;0.85;;
55913;SDS011;58179;48.776;9.124;2022-09-09T11:50:27;4.90;;;0.85;;
55913;SDS011;58179;48.776;9.124;2022-09-09T11:53:15;1.65;;;0.70;;
55913;SDS011;58179;48.776;9.124;2022-09-09T11:55:48;4.75;;;0.75;;
55913;SDS011;58179;48.776;9.124;2022-09-09T11:58:31;1.98;;;0.70;;
55913;SDS011;58179;48.776;9.124;2022-09-09T12:01:12;1.95;;;0.77;;
55913;SDS011;58179;48.776;9.124;2022-09-09T12:03:41;2.97;;;0.90;;
55913;SDS011;58179;48.776;9.124;2022-09-09T12:06:13;2.15;;;0.70;;
55913;SDS011;58179;48.776;9.124;2022-09-09T12:08:46;1.70;;;0.63;;
55913;SDS011;58179;48.776;9.124;2022-09-09T12:11:23;2.50;;;0.75;;
55913;SDS011;58179;48.776;9.124;2022-09-09T12:13:53;1.67;;;0.90;;
55913;SDS011;58179;48.776;9.124;2022-09-09T12:16:31;1.60;;;0.70;;
55913;SDS011;58179;48.776;9.124;2022-09-09T12:19:04;3.83;;;0.90;;
55913;SDS011;58179;48.776;9.124;2022-09-09T12:21:40;3.50;;;0.68;;
55913;SDS011;58179;48.776;9.124;2022-09-09T12:24:28;2.90;;;0.90;;
55913;SDS011;58179;48.776;9.124;2022-09-09T12:27:07;2.78;;;0.70;;
55913;SDS011;58179;48.776;9.124;2022-09-09T12:29:47;3.92;;;1.00;;
55913;SDS011;58179;48.776;9.124;2022-09-09T12:32:28;3.67;;;0.80;;
55913;SDS011;58179;48.776;9.124;2022-09-09T12:34:55;4.20;;;0.80;;
55913;SDS011;58179;48.776;9.124;2022-09-09T12:37:27;3.15;;;0.70;;
55913;SDS011;58179;48.776;9.124;2022-09-09T12:40:00;1.83;;;0.90;;
55913;SDS011;58179;48.776;9.124;2022-09-09T12:42:28;3.67;;;1.00;;
55913;SDS011;58179;48.776;9.124;2022-09-09T12:44:58;3.15;;;0.77;;
55913;SDS011;58179;48.776;9.124;2022-09-09T12:47:28;2.58;;;0.90;;
55913;SDS011;58179;48.776;9.124;2022-09-09T12:50:03;4.63;;;0.77;;
55913;SDS011;58179;48.776;9.124;2022-09-09T12:52:30;1.48;;;0.60;;
55913;SDS011;58179;48.776;9.124;2022-09-09T12:55:01;5.18;;;1.10;;
55913;SDS011;58179;48.776;9.124;2022-09-09T12:57:31;3.87;;;0.73;;
55913;SDS011;58179;48.776;9.124;2022-09-09T13:00:07;1.80;;;0.50;;
55913;SDS011;58179;48.776;9.124;2022-09-09T13:02:50;2.47;;;0.70;;
55913;SDS011;58179;48.776;9.124;2022-09-09T13:05:19;3.33;;;0.73;;
55913;SDS011;58179;48.776;9.124;2022-09-09T13:07:48;3.43;;;0.73;;
55913;SDS011;58179;48.776;9.124;2022-09-09T13:10:15;5.38;;;0.93;;
55913;SDS011;58179;48.776;9.124;2022-09-09T13:12:49;1.97;;;0.67;;
55913;SDS011;58179;48.776;9.124;2022-09-09T13:15:19;4.63;;;0.80;;
55913;SDS011;58179;48.776;9.124;2022-09-09T13:17:54;3.53;;;0.80;;
55913;SDS011;58179;48.776;9.124;2022-09-09T13:20:22;2.10;;;0.67;;
55913;SDS011;58179;48.776;9.124;2022-09-09T13:22:50;4.63;;;1.10;;
55913;SDS011;58179;48.776;9.124;2022-09-09T13:25:20;4.15;;;0.93;;
55913;SDS011;58179;48.776;9.124;2022-09-09T13:27:58;3.55;;;1.10;;
55913;SDS011;58179;48.776;9.124;2022-09-09T13:30:29;5.45;;;0.88;;
55913;SDS011;58179;48.776;9.124;2022-09-09T13:33:03;2.67;;;0.70;;
55913;SDS011;58179;48.776;9.124;2022-09-09T13:35:46;4.20;;;0.95;;
55913;SDS011;58179;48.776;9.124;2022-09-09T13:38:15;3.00;;;0.70;;
55913;SDS011;58179;48.776;9.124;2022-09-09T13:40:51;1.95;;;0.70;;
55913;SDS011;58179;48.776;9.124;2022-09-09T13:43:23;3.50;;;0.63;;
55913;SDS011;58179;48.776;9.124;2022-09-09T13:45:59;3.30;;;0.60;;
55913;SDS011;58179;48.776;9.124;2022-09-09T13:48:27;2.05;;;0.70;;
55913;SDS011;58179;48.776;9.124;2022-09-09T13:50:58;1.80;;;0.90;;
55913;SDS011;58179;48.776;9.124;2022-09-09T13:53:26;2.38;;;0.75;;
55913;SDS011;58179;48.776;9.124;2022-09-09T13:55:53;4.27;;;0.83;;
55913;SDS011;58179;48.776;9.124;2022-09-09T13:58:20;2.88;;;0.52;;
55913;SDS011;58179;48.776;9.124;2022-09-09T14:00:48;2.40;;;0.90;;
55913;SDS011;58179;48.776;9.124;2022-09-09T14:03:16;3.78;;;0.65;;
55913;SDS011;58179;48.776;9.124;2022-09-09T14:05:42;1.77;;;0.57;;
55913;SDS011;58179;48.776;9.124;2022-09-09T14:10:40;4.03;;;0.75;;
55913;SDS011;58179;48.776;9.124;2022-09-09T14:13:06;2.70;;;0.70;;
55913;SDS011;58179;48.776;9.124;2022-09-09T14:15:33;2.20;;;0.60;;
55913;SDS011;58179;48.776;9.124;2022-09-09T14:17:59;2.80;;;0.60;;
55913;SDS011;58179;48.776;9.124;2022-09-09T14:20:26;1.85;;;0.70;;
55913;SDS011;58179;48.776;9.124;2022-09-09T14:22:52;3.45;;;0.80;;
55913;SDS011;58179;48.776;9.124;2022-09-09T14:25:18;2.22;;;0.45;;
55913;SDS011;58179;48.776;9.124;2022-09-09T14:27:44;1.98;;;0.60;;
55913;SDS011;58179;48.776;9.124;2022-09-09T14:30:13;2.53;;;0.60;;
55913;SDS011;58179;48.776;9.124;2022-09-09T14:32:38;3.67;;;0.60;;
55913;SDS011;58179;48.776;9.124;2022-09-09T14:35:05;2.77;;;0.70;;
55913;SDS011;58179;48.776;9.124;2022-09-09T14:37:33;2.13;;;0.40;;
55913;SDS011;58179;48.776;9.124;2022-09-09T14:39:59;4.40;;;0.80;;
55913;SDS011;58179;48.776;9.124;2022-09-09T14:42:25;3.63;;;0.82;;
55913;SDS011;58179;48.776;9.124;2022-09-09T14:44:51;1.90;;;0.73;;
55913;SDS011;58179;48.776;9.124;2022-09-09T14:47:17;1.38;;;0.50;;
55913;SDS011;58179;48.776;9.124;2022-09-09T14:49:43;1.75;;;0.43;;
55913;SDS011;58179;48.776;9.124;2022-09-09T14:52:10;7.32;;;0.52;;
55913;SDS011;58179;48.776;9.124;2022-09-09T14:54:38;2.53;;;0.90;;
55913;SDS011;58179;48.776;9.124;2022-09-09T14:57:03;2.33;;;0.60;;
55913;SDS011;58179;48.776;9.124;2022-09-09T14:59:29;2.47;;;0.50;;
55913;SDS011;58179;48.776;9.124;2022-09-09T15:01:55;1.48;;;0.40;;
55913;SDS011;58179;48.776;9.124;2022-09-09T15:04:21;2.10;;;0.50;;
55913;SDS011;58179;48.776;9.124;2022-09-09T15:06:47;2.47;;;0.60;;
55913;SDS011;58179;48.776;9.124;2022-09-09T15:09:15;2.25;;;0.50;;
55913;SDS011;58179;48.776;9.124;2022-09-09T15:11:42;1.75;;;0.47;;
55913;SDS011;58179;48.776;9.124;2022-09-09T15:14:09;2.60;;;0.75;;
55913;SDS011;58179;48.776;9.124;2022-09-09T15:16:37;4.07;;;0.80;;
55913;SDS011;58179;48.776;9.124;2022-09-09T15:19:04;1.45;;;0.57;;
55913;SDS011;58179;48.776;9.124;2022-09-09T15:21:31;1.02;;;0.50;;